createdAt,value
2018-04-19T00:00:52.211Z,8.10
2018-04-19T00:03:18.410Z,8.20
2018-04-19T00:05:45.366Z,8.10
2018-04-19T00:08:12.303Z,8.20
2018-04-19T00:10:39.271Z,8.30
2018-04-19T00:13:05.459Z,8.30
2018-04-19T00:15:31.676Z,8.20
2018-04-19T00:17:57.891Z,8.10
2018-04-19T00:20:24.100Z,8.00
2018-04-19T00:22:50.318Z,8.00
2018-04-19T00:25:16.559Z,8.20
2018-04-19T00:27:42.774Z,8.40
2018-04-19T00:30:08.993Z,8.60
2018-04-19T00:32:35.979Z,8.90
2018-04-19T00:35:02.219Z,8.80
2018-04-19T00:37:28.410Z,9.10
2018-04-19T00:39:54.648Z,9.50
2018-04-19T00:42:20.842Z,9.70
2018-04-19T00:44:47.052Z,9.70
2018-04-19T00:47:13.231Z,9.70
2018-04-19T00:49:39.458Z,9.60
2018-04-19T00:52:05.670Z,9.50
2018-04-19T00:54:32.607Z,9.40
2018-04-19T00:56:59.562Z,9.40
2018-04-19T00:59:26.514Z,9.50
2018-04-19T01:01:53.472Z,9.50
2018-04-19T01:04:19.691Z,9.40
2018-04-19T01:06:46.648Z,9.60
2018-04-19T01:09:12.865Z,9.60
2018-04-19T01:11:39.805Z,9.70
2018-04-19T01:14:06.758Z,9.60
2018-04-19T01:16:33.695Z,9.70
2018-04-19T01:19:00.652Z,9.60
2018-04-19T01:21:27.627Z,9.50
2018-04-19T01:23:53.829Z,9.40
2018-04-19T01:26:20.812Z,9.00
2018-04-19T01:28:47.026Z,8.90
2018-04-19T01:31:13.288Z,8.50
2018-04-19T01:33:39.500Z,8.20
2018-04-19T01:36:11.786Z,7.90
2018-04-19T01:38:38.076Z,7.70
2018-04-19T01:41:04.263Z,7.80
2018-04-19T01:43:30.515Z,7.90
2018-04-19T01:45:56.729Z,7.90
2018-04-19T01:48:22.919Z,7.70
2018-04-19T01:50:49.154Z,7.60
2018-04-19T01:53:15.345Z,7.70
2018-04-19T01:55:42.293Z,7.50
2018-04-19T01:58:09.228Z,7.30
2018-04-19T02:00:35.450Z,7.20
2018-04-19T02:03:01.680Z,7.10
2018-04-19T02:05:27.888Z,6.90
2018-04-19T02:07:54.106Z,6.80
2018-04-19T02:10:20.336Z,6.80
2018-04-19T02:12:46.552Z,6.80
2018-04-19T02:15:12.747Z,6.70
2018-04-19T02:17:39.706Z,6.60
2018-04-19T02:20:05.938Z,6.60
2018-04-19T02:22:32.123Z,6.60
2018-04-19T02:24:58.346Z,6.60
2018-04-19T02:27:24.534Z,6.60
2018-04-19T02:29:50.779Z,6.50
2018-04-19T02:32:17.006Z,6.60
2018-04-19T02:34:43.247Z,6.50
2018-04-19T02:37:09.501Z,6.60
2018-04-19T02:39:35.720Z,6.60
2018-04-19T02:42:01.943Z,6.50
2018-04-19T02:44:28.141Z,6.40
2018-04-19T02:46:54.371Z,6.50
2018-04-19T02:49:20.561Z,6.40
2018-04-19T02:51:46.754Z,6.30
2018-04-19T02:54:12.971Z,6.50
2018-04-19T02:56:39.235Z,6.70
2018-04-19T02:59:05.435Z,6.70
2018-04-19T03:01:31.654Z,6.70
2018-04-19T03:03:57.886Z,6.70
2018-04-19T03:06:24.898Z,6.50
2018-04-19T03:08:51.845Z,6.50
2018-04-19T03:11:18.831Z,6.60
2018-04-19T03:13:45.031Z,6.60
2018-04-19T03:16:11.978Z,6.80
2018-04-19T03:18:38.907Z,6.80
2018-04-19T03:21:05.148Z,6.70
2018-04-19T03:23:32.083Z,6.80
2018-04-19T03:25:58.326Z,6.70
2018-04-19T03:28:25.307Z,6.80
2018-04-19T03:30:53.432Z,6.80
2018-04-19T03:33:47.963Z,6.70
2018-04-19T03:36:16.928Z,6.70
2018-04-19T03:38:44.072Z,6.70
2018-04-19T03:41:10.449Z,6.70
2018-04-19T03:43:36.867Z,6.70
2018-04-19T03:46:04.204Z,6.80
2018-04-19T03:48:31.361Z,6.90
2018-04-19T03:50:58.480Z,6.90
2018-04-19T03:53:24.911Z,6.80
2018-04-19T03:55:51.299Z,7.00
2018-04-19T03:58:17.664Z,7.20
2018-04-19T04:00:44.047Z,7.30
2018-04-19T04:03:11.150Z,7.60
2018-04-19T04:05:37.552Z,7.60
2018-04-19T04:08:03.941Z,7.70
2018-04-19T04:10:31.065Z,7.70
2018-04-19T04:12:57.448Z,7.60
2018-04-19T04:15:24.556Z,7.80
2018-04-19T04:18:03.371Z,7.70
2018-04-19T04:20:41.997Z,7.90
2018-04-19T04:23:30.332Z,7.90
2018-04-19T04:25:56.700Z,7.90
2018-04-19T04:28:23.092Z,8.10
2018-04-19T04:30:49.536Z,8.10
2018-04-19T04:33:15.926Z,8.10
2018-04-19T04:35:43.048Z,8.30
2018-04-19T04:38:09.457Z,8.30
2018-04-19T04:40:35.824Z,8.30
2018-04-19T04:43:02.224Z,8.40
2018-04-19T04:45:28.765Z,8.50
2018-04-19T04:47:55.149Z,8.50
2018-04-19T04:50:22.268Z,8.60
2018-04-19T04:52:48.672Z,8.50
2018-04-19T04:55:15.043Z,8.70
2018-04-19T04:57:41.435Z,8.80
2018-04-19T05:00:07.988Z,9.20
2018-04-19T05:02:34.395Z,10.00
2018-04-19T05:05:00.765Z,10.60
2018-04-19T05:07:27.192Z,11.20
2018-04-19T05:09:53.580Z,11.50
2018-04-19T05:12:20.707Z,12.10
2018-04-19T05:14:47.097Z,12.00
2018-04-19T05:17:14.667Z,12.40
2018-04-19T05:19:41.120Z,12.60
2018-04-19T05:22:07.524Z,12.70
2018-04-19T05:24:33.890Z,12.80
2018-04-19T05:27:00.292Z,13.10
2018-04-19T05:29:26.647Z,13.00
2018-04-19T05:31:53.067Z,13.10
2018-04-19T05:34:19.480Z,12.30
2018-04-19T05:36:45.888Z,11.50
2018-04-19T05:39:12.247Z,11.20
2018-04-19T05:41:38.649Z,11.00
2018-04-19T05:44:05.042Z,11.00
2018-04-19T05:46:31.429Z,11.00
2018-04-19T05:48:58.558Z,11.20
2018-04-19T05:51:24.928Z,11.10
2018-04-19T05:53:52.056Z,11.30
2018-04-19T05:56:18.423Z,11.20
2018-04-19T05:58:44.854Z,11.40
2018-04-19T06:01:11.280Z,11.50
2018-04-19T06:03:38.387Z,11.70
2018-04-19T06:06:04.801Z,11.60
2018-04-19T06:08:31.175Z,11.70
2018-04-19T06:10:58.321Z,12.00
2018-04-19T06:13:24.717Z,11.90
2018-04-19T06:15:51.081Z,12.00
2018-04-19T06:18:17.475Z,12.30
2018-04-19T06:20:43.835Z,12.30
2018-04-19T06:23:10.225Z,12.40
2018-04-19T06:25:36.580Z,12.50
2018-04-19T06:28:02.944Z,12.50
2018-04-19T06:30:29.345Z,12.70
2018-04-19T06:32:55.716Z,12.90
2018-04-19T06:35:22.153Z,13.10
2018-04-19T06:37:48.564Z,13.30
2018-04-19T06:40:14.975Z,13.40
2018-04-19T06:42:41.340Z,13.60
2018-04-19T06:45:07.740Z,13.80
2018-04-19T06:47:34.169Z,13.80
2018-04-19T06:50:01.047Z,13.90
2018-04-19T06:52:27.439Z,14.00
2018-04-19T06:54:54.560Z,14.10
2018-04-19T06:57:20.935Z,14.00
2018-04-19T06:59:47.390Z,14.40
2018-04-19T07:02:13.595Z,14.40
2018-04-19T07:04:39.805Z,14.50
2018-04-19T07:07:06.738Z,14.70
2018-04-19T07:09:32.978Z,14.60
2018-04-19T07:11:59.905Z,15.00
2018-04-19T07:14:26.121Z,14.90
2018-04-19T07:16:52.306Z,15.30
2018-04-19T07:19:18.523Z,15.50
2018-04-19T07:21:45.481Z,15.60
2018-04-19T07:24:11.713Z,15.50
2018-04-19T07:26:37.926Z,15.60
2018-04-19T07:29:04.877Z,15.80
2018-04-19T07:31:31.843Z,15.90
2018-04-19T07:33:58.271Z,15.90
2018-04-19T07:36:24.638Z,16.00
2018-04-19T07:38:51.015Z,16.00
2018-04-19T07:41:18.145Z,16.30
2018-04-19T07:43:44.568Z,16.30
2018-04-19T07:46:11.043Z,16.30
2018-04-19T07:48:37.419Z,16.40
2018-04-19T07:51:03.825Z,16.70
2018-04-19T07:53:30.264Z,16.90
2018-04-19T07:55:56.645Z,16.90
2018-04-19T07:58:23.075Z,16.90
2018-04-19T08:00:49.469Z,17.10
2018-04-19T08:03:15.839Z,17.20
2018-04-19T08:05:42.054Z,16.80
2018-04-19T08:08:08.258Z,17.00
2018-04-19T08:10:34.474Z,17.20
2018-04-19T08:13:01.406Z,17.30
2018-04-19T08:15:27.621Z,17.20
2018-04-19T08:17:53.811Z,17.20
2018-04-19T08:20:20.040Z,17.50
2018-04-19T08:22:46.270Z,17.60
2018-04-19T08:25:12.467Z,17.90
2018-04-19T08:27:39.455Z,17.80
2018-04-19T08:30:05.648Z,17.70
2018-04-19T08:32:32.618Z,17.80
2018-04-19T08:34:58.838Z,17.80
2018-04-19T08:37:25.022Z,18.00
2018-04-19T08:39:51.235Z,18.10
2018-04-19T08:42:17.470Z,18.10
2018-04-19T08:44:43.708Z,18.20
2018-04-19T08:47:09.977Z,18.40
2018-04-19T08:49:36.931Z,18.50
2018-04-19T08:52:03.195Z,18.40
2018-04-19T08:54:29.441Z,18.60
2018-04-19T08:56:55.641Z,18.70
2018-04-19T08:59:21.862Z,18.90
2018-04-19T09:01:48.054Z,18.90
2018-04-19T09:04:15.008Z,18.90
2018-04-19T09:06:41.962Z,18.90
2018-04-19T09:09:08.893Z,18.90
2018-04-19T09:11:35.847Z,19.20
2018-04-19T09:14:02.824Z,19.00
2018-04-19T09:16:29.025Z,18.90
2018-04-19T09:18:55.975Z,19.20
2018-04-19T09:21:22.914Z,19.40
2018-04-19T09:23:49.865Z,19.40
2018-04-19T09:26:16.831Z,19.30
2018-04-19T09:28:43.061Z,19.20
2018-04-19T09:31:09.271Z,19.50
2018-04-19T09:33:36.276Z,19.70
2018-04-19T09:36:02.496Z,19.70
2018-04-19T09:38:28.718Z,19.80
2018-04-19T09:40:54.950Z,19.90
2018-04-19T09:43:21.119Z,20.00
2018-04-19T09:45:47.354Z,19.90
2018-04-19T09:48:13.594Z,20.00
2018-04-19T09:50:40.549Z,20.20
2018-04-19T09:53:07.522Z,20.10
2018-04-19T09:55:33.729Z,20.10
2018-04-19T09:58:06.618Z,20.50
2018-04-19T10:00:33.585Z,20.50
2018-04-19T10:02:59.840Z,20.40
2018-04-19T10:05:26.074Z,20.50
2018-04-19T10:07:52.287Z,20.50
2018-04-19T10:10:18.502Z,20.50
2018-04-19T10:12:44.686Z,20.50
2018-04-19T10:15:10.893Z,20.60
2018-04-19T10:17:37.089Z,20.60
2018-04-19T10:20:03.303Z,20.70
2018-04-19T10:22:30.260Z,20.40
2018-04-19T10:24:56.450Z,20.40
2018-04-19T10:27:22.680Z,20.70
2018-04-19T10:29:48.895Z,20.60
2018-04-19T10:32:15.083Z,20.60
2018-04-19T10:34:41.300Z,20.70
2018-04-19T10:37:07.665Z,21.00
2018-04-19T10:39:34.082Z,21.00
2018-04-19T10:42:00.452Z,21.40
2018-04-19T10:44:26.823Z,21.10
2018-04-19T10:46:53.987Z,21.10
2018-04-19T10:49:20.352Z,21.00
2018-04-19T10:51:46.740Z,21.20
2018-04-19T10:54:13.839Z,21.30
2018-04-19T10:56:40.239Z,21.30
2018-04-19T10:59:06.616Z,21.40
2018-04-19T11:01:32.967Z,21.50
2018-04-19T11:04:00.091Z,21.60
2018-04-19T11:06:26.492Z,21.50
2018-04-19T11:08:52.891Z,21.60
2018-04-19T11:11:19.263Z,21.60
2018-04-19T11:13:46.360Z,21.40
2018-04-19T11:16:12.737Z,21.30
2018-04-19T11:18:39.118Z,21.70
2018-04-19T11:21:05.504Z,22.00
2018-04-19T11:23:31.883Z,22.00
2018-04-19T11:25:58.074Z,22.10
2018-04-19T11:28:24.288Z,22.20
2018-04-19T11:30:51.215Z,22.20
2018-04-19T11:33:17.399Z,22.20
2018-04-19T11:35:43.606Z,22.20
2018-04-19T11:38:09.815Z,22.20
2018-04-19T11:40:36.747Z,22.50
2018-04-19T11:43:02.980Z,22.50
2018-04-19T11:45:29.165Z,22.70
2018-04-19T11:47:55.377Z,22.70
2018-04-19T11:50:21.590Z,23.00
2018-04-19T11:52:48.527Z,23.20
2018-04-19T11:55:15.483Z,23.30
2018-04-19T11:57:42.437Z,23.10
2018-04-19T12:00:08.691Z,23.00
2018-04-19T12:02:34.903Z,22.90
2018-04-19T12:05:01.096Z,22.80
2018-04-19T12:07:27.318Z,22.80
2018-04-19T12:09:53.530Z,22.70
2018-04-19T12:12:19.745Z,22.70
2018-04-19T12:14:45.962Z,22.80
2018-04-19T12:17:12.154Z,22.90
2018-04-19T12:19:38.406Z,22.80
2018-04-19T12:22:04.599Z,23.20
2018-04-19T12:24:30.821Z,23.20
2018-04-19T12:26:57.063Z,23.10
2018-04-19T12:29:23.277Z,23.00
2018-04-19T12:31:49.523Z,23.00
2018-04-19T12:34:15.726Z,22.90
2018-04-19T12:36:41.998Z,23.10
2018-04-19T12:39:08.941Z,23.30
2018-04-19T12:41:35.920Z,23.40
2018-04-19T12:44:02.144Z,23.30
2018-04-19T12:46:28.338Z,23.50
2018-04-19T12:48:55.299Z,23.20
2018-04-19T12:51:22.231Z,23.30
2018-04-19T12:53:48.421Z,23.30
2018-04-19T12:56:14.662Z,23.30
2018-04-19T12:58:40.872Z,23.30
2018-04-19T13:01:07.114Z,23.30
2018-04-19T13:03:33.345Z,23.20
2018-04-19T13:05:59.587Z,23.30
2018-04-19T13:08:25.830Z,23.50
2018-04-19T13:10:52.058Z,23.30
2018-04-19T13:13:18.252Z,23.10
2018-04-19T13:15:44.503Z,23.20
2018-04-19T13:18:10.738Z,23.30
2018-04-19T13:20:36.937Z,23.40
2018-04-19T13:23:03.153Z,23.40
2018-04-19T13:25:29.348Z,23.40
2018-04-19T13:27:55.570Z,23.60
2018-04-19T13:30:21.788Z,23.60
2018-04-19T13:32:47.980Z,23.70
2018-04-19T13:35:14.194Z,23.60
2018-04-19T13:37:41.165Z,23.60
2018-04-19T13:40:07.379Z,23.50
2018-04-19T13:42:33.595Z,23.60
2018-04-19T13:45:00.535Z,23.50
2018-04-19T13:47:27.507Z,23.60
2018-04-19T13:49:54.803Z,23.50
2018-04-19T13:52:21.019Z,23.70
2018-04-19T13:54:47.231Z,23.80
2018-04-19T13:57:13.444Z,23.60
2018-04-19T13:59:39.669Z,23.70
2018-04-19T14:02:06.659Z,23.70
2018-04-19T14:04:32.988Z,23.60
2018-04-19T14:06:59.248Z,23.80
2018-04-19T14:09:25.475Z,23.80
2018-04-19T14:11:51.683Z,23.80
2018-04-19T14:14:18.031Z,23.70
2018-04-19T14:16:44.311Z,23.80
2018-04-19T14:19:10.523Z,23.70
2018-04-19T14:21:37.482Z,23.70
2018-04-19T14:24:03.674Z,23.60
2018-04-19T14:26:30.632Z,23.70
2018-04-19T14:28:56.830Z,23.60
2018-04-19T14:31:23.014Z,23.70
2018-04-19T14:33:49.968Z,23.50
2018-04-19T14:36:16.164Z,23.50
2018-04-19T14:38:42.390Z,23.50
2018-04-19T14:41:09.346Z,23.50
2018-04-19T14:43:35.602Z,23.40
2018-04-19T14:46:01.791Z,23.60
2018-04-19T14:48:27.978Z,23.60
2018-04-19T14:50:54.194Z,23.70
2018-04-19T14:53:20.403Z,23.70
2018-04-19T14:55:47.340Z,23.90
2018-04-19T14:58:14.294Z,23.80
2018-04-19T15:00:41.247Z,23.90
2018-04-19T15:03:08.182Z,23.60
2018-04-19T15:05:35.162Z,23.60
2018-04-19T15:08:01.361Z,23.50
2018-04-19T15:10:28.311Z,23.50
2018-04-19T15:12:55.270Z,23.50
2018-04-19T15:15:22.235Z,23.50
2018-04-19T15:17:48.434Z,23.40
2018-04-19T15:20:15.394Z,23.40
2018-04-19T15:22:42.354Z,23.40
2018-04-19T15:25:08.575Z,23.30
2018-04-19T15:27:34.786Z,23.40
2018-04-19T15:30:01.745Z,23.40
2018-04-19T15:32:28.720Z,23.60
2018-04-19T15:34:54.934Z,23.50
2018-04-19T15:37:21.231Z,23.40
2018-04-19T15:39:47.456Z,23.30
2018-04-19T15:42:13.669Z,23.40
2018-04-19T15:44:39.891Z,23.30
2018-04-19T15:47:06.105Z,23.20
2018-04-19T15:49:32.301Z,23.20
2018-04-19T15:51:59.267Z,23.20
2018-04-19T15:54:25.500Z,23.20
2018-04-19T15:56:51.718Z,23.20
2018-04-19T15:59:17.971Z,23.20
2018-04-19T16:01:44.193Z,23.10
2018-04-19T16:04:10.460Z,23.00
2018-04-19T16:06:36.686Z,23.00
2018-04-19T16:09:02.959Z,22.90
2018-04-19T16:11:29.976Z,22.90
2018-04-19T16:13:56.229Z,22.90
2018-04-19T16:16:23.162Z,22.80
2018-04-19T16:18:49.403Z,22.70
2018-04-19T16:21:16.359Z,22.80
2018-04-19T16:23:43.340Z,22.80
2018-04-19T16:26:09.554Z,22.70
2018-04-19T16:28:35.787Z,22.70
2018-04-19T16:31:02.008Z,22.70
2018-04-19T16:33:28.251Z,22.60
2018-04-19T16:35:54.484Z,22.60
2018-04-19T16:38:20.715Z,22.50
2018-04-19T16:40:46.947Z,22.40
2018-04-19T16:43:13.175Z,22.40
2018-04-19T16:45:39.371Z,22.30
2018-04-19T16:48:06.329Z,22.20
2018-04-19T16:50:32.587Z,22.10
2018-04-19T16:52:58.774Z,22.10
2018-04-19T16:55:25.744Z,22.00
2018-04-19T16:57:52.015Z,21.90
2018-04-19T17:00:18.210Z,21.80
2018-04-19T17:02:44.432Z,21.80
2018-04-19T17:05:10.702Z,21.80
2018-04-19T17:07:36.983Z,22.80
2018-04-19T17:10:03.987Z,23.30
2018-04-19T17:12:30.218Z,23.20
2018-04-19T17:14:56.433Z,23.30
2018-04-19T17:17:22.651Z,23.40
2018-04-19T17:19:48.851Z,23.30
2018-04-19T17:22:15.846Z,23.10
2018-04-19T17:24:42.080Z,23.00
2018-04-19T17:27:08.291Z,22.80
2018-04-19T17:29:34.501Z,22.60
2018-04-19T17:32:00.711Z,22.40
2018-04-19T17:34:27.644Z,22.00
2018-04-19T17:36:53.834Z,22.00
2018-04-19T17:39:20.066Z,21.80
2018-04-19T17:41:46.280Z,21.60
2018-04-19T17:44:12.499Z,21.40
2018-04-19T17:46:38.745Z,21.20
2018-04-19T17:49:04.965Z,20.90
2018-04-19T17:51:31.182Z,20.50
2018-04-19T17:53:57.450Z,20.30
2018-04-19T17:56:23.676Z,20.00
2018-04-19T17:58:49.998Z,19.60
2018-04-19T18:01:16.234Z,19.30
2018-04-19T18:03:42.443Z,18.90
2018-04-19T18:06:08.910Z,18.60
2018-04-19T18:08:35.348Z,18.40
2018-04-19T18:11:01.833Z,18.10
2018-04-19T18:13:28.323Z,17.80
2018-04-19T18:15:54.755Z,17.70
2018-04-19T18:18:20.978Z,17.60
2018-04-19T18:20:47.194Z,17.50
2018-04-19T18:23:13.402Z,17.40
2018-04-19T18:25:39.590Z,17.20
2018-04-19T18:28:05.819Z,17.10
2018-04-19T18:30:32.035Z,17.00
2018-04-19T18:32:58.240Z,16.80
2018-04-19T18:35:24.471Z,16.70
2018-04-19T18:37:50.659Z,16.60
2018-04-19T18:40:17.637Z,16.60
2018-04-19T18:42:43.871Z,16.50
2018-04-19T18:45:10.215Z,16.60
2018-04-19T18:47:36.463Z,16.40
2018-04-19T18:50:04.344Z,16.40
2018-04-19T18:52:32.398Z,16.30
2018-04-19T18:54:59.512Z,16.30
2018-04-19T18:57:27.972Z,16.30
2018-04-19T18:59:56.949Z,16.30
2018-04-19T19:02:24.972Z,16.20
2018-04-19T19:04:53.639Z,16.20
2018-04-19T19:07:23.092Z,16.30
2018-04-19T19:09:51.196Z,16.20
2018-04-19T19:12:19.485Z,16.20
2018-04-19T19:14:49.521Z,16.10
2018-04-19T19:17:30.213Z,16.10
2018-04-19T19:20:10.983Z,16.00
2018-04-19T19:22:37.649Z,15.90
2018-04-19T19:25:04.053Z,15.50
2018-04-19T19:27:30.484Z,15.20
2018-04-19T19:29:56.852Z,14.90
2018-04-19T19:32:23.262Z,14.50
2018-04-19T19:34:49.684Z,14.10
2018-04-19T19:37:17.140Z,13.80
2018-04-19T19:39:43.543Z,13.50
2018-04-19T19:42:10.699Z,13.10
2018-04-19T19:44:37.998Z,13.00
2018-04-19T19:47:04.636Z,12.90
2018-04-19T19:49:31.003Z,13.00
2018-04-19T19:51:57.461Z,12.90
2018-04-19T19:54:24.574Z,12.70
2018-04-19T19:56:50.801Z,12.70
2018-04-19T19:59:16.999Z,12.60
2018-04-19T20:01:43.421Z,12.50
2018-04-19T20:04:09.856Z,12.50
2018-04-19T20:06:36.965Z,12.20
2018-04-19T20:09:03.436Z,12.10
2018-04-19T20:11:30.551Z,12.00
2018-04-19T20:13:56.935Z,11.90
2018-04-19T20:16:23.349Z,12.00
2018-04-19T20:18:50.544Z,12.20
2018-04-19T20:21:17.081Z,12.10
2018-04-19T20:23:43.513Z,12.40
2018-04-19T20:26:09.919Z,12.50
2018-04-19T20:28:37.027Z,12.40
2018-04-19T20:31:03.420Z,12.40
2018-04-19T20:33:29.810Z,12.40
2018-04-19T20:35:56.177Z,12.40
2018-04-19T20:38:22.581Z,12.30
2018-04-19T20:40:48.948Z,12.20
2018-04-19T20:43:15.345Z,12.00
2018-04-19T20:45:41.747Z,11.80
2018-04-19T20:48:08.136Z,11.60
2018-04-19T20:50:35.264Z,11.40
2018-04-19T20:53:02.427Z,11.30
2018-04-19T20:55:28.824Z,11.20
2018-04-19T20:57:55.220Z,11.20
2018-04-19T21:00:21.591Z,11.20
2018-04-19T21:02:47.998Z,11.10
2018-04-19T21:05:14.391Z,11.10
2018-04-19T21:07:40.797Z,11.00
2018-04-19T21:10:07.216Z,10.90
2018-04-19T21:12:33.655Z,10.90
2018-04-19T21:15:00.048Z,10.90
2018-04-19T21:17:27.155Z,10.70
2018-04-19T21:19:53.599Z,10.60
2018-04-19T21:22:19.997Z,10.80
2018-04-19T21:24:46.488Z,10.80
2018-04-19T21:27:12.921Z,10.70
2018-04-19T21:29:39.380Z,10.60
2018-04-19T21:32:05.787Z,10.60
2018-04-19T21:34:32.905Z,10.50
2018-04-19T21:36:59.305Z,10.40
2018-04-19T21:39:25.691Z,10.40
2018-04-19T21:41:52.056Z,10.30
2018-04-19T21:44:19.190Z,10.20
2018-04-19T21:46:45.565Z,10.20
2018-04-19T21:49:11.943Z,10.20
2018-04-19T21:51:38.304Z,10.10
2018-04-19T21:54:05.436Z,10.00
2018-04-19T21:56:32.575Z,10.00
2018-04-19T21:58:58.944Z,9.90
2018-04-19T22:01:26.078Z,10.00
2018-04-19T22:03:53.185Z,10.10
2018-04-19T22:06:19.571Z,10.00
2018-04-19T22:08:46.681Z,10.30
2018-04-19T22:11:13.064Z,10.30
2018-04-19T22:13:39.459Z,10.40
2018-04-19T22:16:05.827Z,10.40
2018-04-19T22:18:32.960Z,10.50
2018-04-19T22:20:59.348Z,10.50
2018-04-19T22:26:16.243Z,10.60
2018-04-19T22:28:43.344Z,10.70
2018-04-19T22:31:09.731Z,10.60
2018-04-19T22:33:36.836Z,10.70
2018-04-19T22:36:03.282Z,10.70
2018-04-19T22:38:29.724Z,11.00
2018-04-19T22:40:56.158Z,11.10
2018-04-19T22:43:22.567Z,11.20
2018-04-19T22:45:48.937Z,11.30
2018-04-19T22:48:16.115Z,11.40
2018-04-19T22:50:42.527Z,11.40
2018-04-19T22:53:09.650Z,11.20
2018-04-19T22:55:36.034Z,11.10
2018-04-19T22:58:02.442Z,11.00
